Snake Valley, Nevada Weather observations

Data are for 10 minute period ending at time listed.
 Day   Time   Solar   Ave.   Ave.  Ave.  Vector  Max.   Baro.   Total    
  of    of     Rad.   Air    Rel.  Wind   Wind   Wind  Press.  Precip.   
Year   Day            Temp.  Hum.  Speed  Dir.   Gust                    
2016   (PST)  Kw/m2    F      %     mph   deg.    mph    mb.     in.     
-------------------------------------------------------------------------
 236    9:50   0.65   83.1    19    2.3   182     5.1   844.7    0.00 
 236   10:00   0.62   82.0    17    1.5   202     3.8   844.7    0.00 
 236   10:10   0.41   82.1    18    2.5    16     4.7   844.6    0.00 
 236   10:20   0.30   80.6    19    2.3    28     4.6   844.6    0.00 
 236   10:30   0.38   81.2    17    1.1    59     2.6   844.6    0.00 
 236   10:40   0.48   82.1    22    2.0   142     4.3   844.4    0.00 
 236   10:50   0.46   82.6    20    3.7   147     5.8   844.4    0.00 
 236   11:00   0.45   79.4    23    4.3   139     7.5   844.3    0.00 
 236   11:10   0.97   81.7    22    4.7   148     7.3   844.3    0.00 
 236   11:20   0.93   83.9    19    6.5   174    13.4   844.2    0.00 
 236   11:30   0.76   83.3    18    3.7   182     9.1   844.2    0.00 
 236   11:40   1.02   85.7    14    3.8   208     8.0   844.1    0.00 
 236   11:50   1.00   85.9    15    2.3   130     5.9   844.0    0.00 
 236   12:00   1.01   87.0    15    4.4   166     8.5   843.9    0.00 
 236   12:10   1.00   87.2    15    3.5   137     8.0   843.8    0.00 
 236   12:20   0.65   86.9    14    2.1   112     5.5   843.7    0.00 
 236   12:30   0.82   85.9    15    3.9   156     9.8   843.6    0.00 
 236   12:40   0.65   84.4    19    6.4   181    11.8   843.5    0.00 
 236   12:50   0.94   85.5    16    5.0   159    10.6   843.2    0.00 
 236   13:00   0.74   86.2    14    4.4   180    12.5   843.2    0.00 
 236   13:10   0.75   86.9    13    5.6   239    10.0   843.0    0.00 
 236   13:20   0.53   85.2    14    3.7    65     9.9   842.9    0.00 
 236   13:30   0.27   86.1    16    3.9   200     7.4   842.9    0.00 
 236   13:40   0.22   83.8    15    5.3   231    17.0   842.9    0.00 
 236   13:50   0.65   84.3    15   10.2   249    22.2   842.8    0.00 
 236   14:00   0.59   84.6    14    5.7   270     9.8   842.6    0.00 
 236   14:10   0.62   86.3    14    5.6   206     9.6   842.5    0.00 
 236   14:20   0.61   86.4    16    4.5   192     7.0   842.4    0.00 
 236   14:30   0.48   85.9    17    6.6   203    10.6   842.3    0.00 
 236   14:40   0.23   84.2    16    7.6   246    14.0   842.3    0.00 
 236   14:50   0.18   83.4    15   10.3   252    18.0   842.1    0.00 
 236   15:00   0.23   82.2    16   10.2   238    17.5   841.9    0.00 
 236   15:10   0.34   83.3    18    5.4   193    11.1   841.9    0.00 
 236   15:20   0.47   84.8    16    2.6   204     5.7   841.8    0.00 
 236   15:30   0.49   85.4    15    6.0   328    12.3   841.9    0.00 
 236   15:40   0.50   85.5    15    9.0   305    14.2   842.0    0.00 
 236   15:50   0.56   85.9    13   15.8   306    28.3   842.2    0.00 
 236   16:00   0.24   84.8    11   19.6   313    29.5   842.2    0.00 
 236   16:10   0.51   86.0    11   13.8   326    21.8   842.2    0.00 
 236   16:20   0.53   87.3    11    9.9   314    17.8   842.3    0.00 
 236   16:30   0.31   86.3    11    8.5   327    19.1   842.2    0.00 
 236   16:40   0.10   83.2    14    5.0    16    11.3   842.1    0.00 
 236   16:50   0.09   82.1    13    1.4   339     5.0   842.1    0.00 
 236   17:00   0.14   81.3    19    2.6   233     5.3   842.1    0.00 
 236   17:10   0.07   79.9    20    4.1   251     8.9   842.1    0.00 
 236   17:20   0.07   79.0    17    8.6   262    12.9   842.0    0.00 
 236   17:30   0.08   79.4    16    8.8   253    12.4   842.0    0.00 
 236   17:40   0.05   78.0    18    6.3   239    10.4   841.9    0.00 
 236   17:50   0.03   75.5    21    4.2   244     5.4   841.9    0.00 
 236   18:00   0.02   73.6    26    2.2   194     3.8   841.9    0.00 
 236   18:10   0.02   72.3    27    1.7   155     4.6   841.9    0.00 
 236   18:20   0.01   73.6    24    1.9   156     3.4   842.0    0.00 
 236   18:30   0.01   76.4    19    8.6   263    20.2   842.0    0.00 
 236   18:40   0.00   77.4    18    6.8   257    13.7   842.1    0.00 
 236   18:50   0.00   72.5    28    6.9    96    12.3   842.3    0.00 
 236   19:00   0.00   70.0    32    3.3   119     6.4   842.4    0.00 
 236   19:10   0.00   71.7    27    4.2   140     7.8   842.5    0.00 
 236   19:20   0.00   75.7    21    5.1   110    14.8   842.7    0.00 
 236   19:30   0.00   74.9    24    4.5   144     9.4   842.9    0.00 
 236   19:40   0.00   73.5    26    3.8   144     6.4   843.1    0.00 
 236   19:50   0.00   71.7    29    5.6   138     8.3   843.3    0.00 
 236   20:00   0.00   71.1    30    8.3   146    15.3   843.5    0.00 
 236   20:10   0.00   70.1    32    7.2   160    12.5   843.6    0.00 
 236   20:20   0.00   69.3    33    6.4   166     9.7   843.6    0.00 
 236   20:30   0.00   68.4    35    4.8   167     7.7   843.7    0.00 
 236   20:40   0.00   67.6    36    3.8   169     6.5   843.8    0.00 
 236   20:50   0.00   66.6    38    2.4   160     6.3   843.9    0.00 
 236   21:00   0.00   65.5    40    3.2   134     6.4   844.1    0.00 
 236   21:10   0.00   65.2    40    4.4   132     6.2   844.2    0.00 
 236   21:20   0.00   64.7    42    5.3   146     9.6   844.3    0.00 
 236   21:30   0.00   64.7    41    5.1   159    10.1   844.4    0.00 
 236   21:40   0.00   63.5    41    4.4   202     6.6   844.4    0.00 
 236   21:50   0.00   60.9    43    4.1   219     5.8   844.4    0.00 
 236   22:00   0.00   57.6    45    5.1   236     7.1   844.4    0.00 
 236   22:10   0.00   56.2    50    1.4   310     4.5   844.4    0.00 
 236   22:20   0.00   55.2    58    2.7   187     3.9   844.4    0.00 
 236   22:30   0.00   54.1    63    1.6   190     3.4   844.5    0.00 
 236   22:40   0.00   53.9    59    2.8   246     3.8   844.5    0.00 
 236   22:50   0.00   53.0    60    2.8   237     4.1   844.5    0.00 
 236   23:00   0.00   52.0    60    2.5   234     3.4   844.5    0.00 
 236   23:10   0.00   51.7    58    1.5   272     3.6   844.5    0.00 
 236   23:20   0.00   50.9    63    2.8   265     4.6   844.6    0.00 
 236   23:30   0.00   52.7    56    2.5   242     4.8   844.6    0.00 
 236   23:40   0.00   50.6    60    3.1   245     4.3   844.6    0.00 
 236   23:50   0.00   50.3    64    2.8   260     3.9   844.6    0.00 
 237    0:00   0.00   50.0    62    2.2   246     2.9   844.5    0.00 
 237    0:10   0.00   49.8    66    0.8   350     2.9   844.5    0.00 
 237    0:20   0.00   52.4    57    1.9   101     3.6   844.5    0.00 
 237    0:30   0.00   50.8    61    0.4   110     1.7   844.7    0.00 
 237    0:40   0.00   53.0    53    2.6   167     4.5   844.7    0.00 
 237    0:50   0.00   55.3    52    2.8   204     5.1   844.8    0.00 
 237    1:00   0.00   55.9    50    2.3   201     4.2   844.9    0.00 
 237    1:10   0.00   57.8    47    1.0   306     2.5   845.0    0.00 
 237    1:20   0.00   57.1    52    2.5     9     6.1   845.1    0.00 
 237    1:30   0.00   58.8    50    4.0    56     5.8   845.1    0.00 
 237    1:40   0.00   56.5    55    3.7     2     5.8   845.1    0.00 
 237    1:50   0.00   52.1    61    5.2   284     6.6   845.2    0.00 
 237    2:00   0.00   52.0    59    4.8   299     6.7   845.2    0.00 
 237    2:10   0.00   52.1    55    4.0   317     5.0   845.3    0.00 
 237    2:20   0.00   52.1    56    4.8   295     6.4   845.3    0.00 
 237    2:30   0.00   53.0    56    4.3   334     7.4   845.3    0.00 
 237    2:40   0.00   53.1    58    2.3    28     7.1   845.3    0.00 
 237    2:50   0.00   52.7    59    0.9   201     3.5   845.4    0.00 
 237    3:00   0.00   51.5    63    1.5   210     3.6   845.5    0.00 
 237    3:10   0.00   51.5    61    2.8   188     4.2   845.4    0.00 
 237    3:20   0.00   49.6    65    2.3   250     3.1   845.5    0.00 
 237    3:30   0.00   49.1    64    2.9   278     5.0   845.5    0.00 
 237    3:40   0.00   47.7    68    3.4   245     4.8   845.4    0.00 
 237    3:50   0.00   47.0    73    2.9   278     4.1   845.4    0.00 
 237    4:00   0.00   47.4    73    3.5   292     5.2   845.5    0.00 
 237    4:10   0.00   48.2    68    3.7   296     5.7   845.6    0.00 
 237    4:20   0.00   47.9    67    3.5   291     4.8   845.6    0.00 
 237    4:30   0.00   47.6    67    3.6   292     4.9   845.6    0.00 
 237    4:40   0.00   46.7    69    3.1   285     4.5   845.6    0.00 
 237    4:50   0.00   46.1    71    0.5   271     1.8   845.7    0.00 
 237    5:00   0.00   46.5    68    2.4   269     3.2   845.8    0.00 
 237    5:10   0.01   45.6    70    2.6   248     3.6   845.8    0.00 
 237    5:20   0.02   46.4    66    3.9   257     5.0   846.0    0.00 
 237    5:30   0.04   46.8    66    3.2   258     4.3   846.0    0.00 
 237    5:40   0.06   47.9    65    2.4   220     4.6   846.1    0.00 
 237    5:50   0.08   49.1    64    2.6   218     4.7   846.2    0.00 
 237    6:00   0.11   51.4    57    3.0   211     4.5   846.2    0.00 
 237    6:10   0.14   54.5    52    1.1   238     2.0   846.3    0.00 
 237    6:20   0.17   56.6    49    1.9   245     2.7   846.3    0.00 
 237    6:30   0.20   59.2    44    2.0   261     3.0   846.3    0.00 
 237    6:40   0.23   61.7    39    2.2   278     3.1   846.4    0.00 
 237    6:50   0.27   64.0    38    2.0   216     2.8   846.4    0.00 
 237    7:00   0.30   66.9    34    0.7   148     2.0   846.4    0.00 
 237    7:10   0.34   68.0    35    1.8   146     2.6   846.5    0.00 
 237    7:20   0.37   67.7    31    2.2   125     4.2   846.4    0.00 
 237    7:30   0.41   69.6    27    1.9    66     4.4   846.4    0.00 
 237    7:40   0.45   69.5    25    3.2    39     5.3   846.3    0.00 
 237    7:50   0.48   70.4    22    1.6    50     3.4   846.3    0.00 
 237    8:00   0.51   71.5    21    1.3    50     3.5   846.2    0.00 
 237    8:10   0.55   72.5    20    1.5    50     3.4   846.1    0.00 
 237    8:20   0.58   73.0    19    2.9    37     7.8   846.1    0.00 
 237    8:30   0.61   71.2    23    5.3    14     8.2   846.1    0.00 
 237    8:40   0.64   71.7    21    4.5    37     8.3   846.1    0.00 
 237    8:50   0.67   73.5    20    3.7    57     7.3   846.2    0.00 
 237    9:00   0.70   74.1    17    2.4    35     6.0   846.1    0.00 
 237    9:10   0.72   74.6    15    2.9    21     5.8   846.1    0.00 
 237    9:20   0.75   74.9    15    2.3    54     6.4   846.1    0.00 
 237    9:30   0.77   75.6    16    4.2    48     7.1   846.1    0.00 
 237    9:40   0.80   75.4    15    3.6    22     9.3   846.2    0.00 

Return to Snake Valley graphs page.


Western Regional Climate Center,wrcc@dri.edu